Time;durP1;ratioP1;P1;durP2;ratioP2;P2;SDS_P1;SDS_P2;PMS_P1;PMS_P2;Temp;Humidity;BMP_temperature;BMP_pressure;BME280_temperature;BME280_humidity;BME280_pressure;Samples;Min_cycle;Max_cycle;Signal;HPM_P1;HPM_P2
2021/03/15 00:00:49;;;;;;;1.53;1.30;;;4.90;98.00;;;;;;5071915;28;20461;-72
2021/03/15 00:03:18;;;;;;;1.20;0.90;;;4.80;98.00;;;;;;5069238;28;20504;-72
2021/03/15 00:05:44;;;;;;;1.20;1.00;;;4.70;98.00;;;;;;5071847;28;20461;-72
2021/03/15 00:08:12;;;;;;;1.20;1.10;;;4.70;98.00;;;;;;5069385;28;20520;-72
2021/03/15 00:10:39;;;;;;;1.20;0.90;;;4.60;98.00;;;;;;5070442;28;20553;-72
2021/03/15 00:13:07;;;;;;;1.50;1.20;;;4.60;98.00;;;;;;5069197;28;20489;-72
2021/03/15 00:15:34;;;;;;;1.50;1.10;;;4.60;98.00;;;;;;5071258;28;20458;-72
2021/03/15 00:18:05;;;;;;;3.40;1.97;;;4.60;98.00;;;;;;5069193;28;20515;-72
2021/03/15 00:20:33;;;;;;;1.20;0.90;;;4.60;98.00;;;;;;5071449;28;20461;-72
2021/03/15 00:23:00;;;;;;;1.20;0.90;;;4.60;98.00;;;;;;5069016;28;20485;-72
2021/03/15 00:25:26;;;;;;;1.63;1.50;;;4.60;98.00;;;;;;5071201;28;20476;-72
2021/03/15 00:27:54;;;;;;;1.70;1.20;;;4.70;98.00;;;;;;5069078;28;20463;-72
2021/03/15 00:30:21;;;;;;;1.20;1.00;;;4.80;98.00;;;;;;5071320;28;20559;-72
2021/03/15 00:32:49;;;;;;;1.20;1.00;;;4.90;98.00;;;;;;5068725;28;20471;-72
2021/03/15 00:35:17;;;;;;;1.20;1.10;;;5.10;98.00;;;;;;5070075;28;20464;-72
2021/03/15 00:37:49;;;;;;;1.40;1.30;;;5.00;98.00;;;;;;5069147;28;20486;-72
2021/03/15 00:40:18;;;;;;;1.60;1.27;;;4.90;98.00;;;;;;5071403;28;20452;-72
2021/03/15 00:42:48;;;;;;;1.20;1.00;;;4.70;98.00;;;;;;5068835;28;20964;-72
2021/03/15 00:45:17;;;;;;;1.20;1.00;;;4.30;98.00;;;;;;5071111;28;20966;-72
2021/03/15 00:47:44;;;;;;;1.20;1.00;;;4.20;98.00;;;;;;5069710;28;20472;-72
2021/03/15 00:50:16;;;;;;;1.23;1.00;;;4.20;98.00;;;;;;5074758;28;20967;-72
2021/03/15 00:52:43;;;;;;;1.20;1.00;;;4.20;98.00;;;;;;5073062;28;20472;-72
2021/03/15 00:55:10;;;;;;;1.93;1.37;;;4.10;98.00;;;;;;5075298;28;20489;-72
2021/03/15 00:57:38;;;;;;;1.30;1.10;;;3.90;98.00;;;;;;5072908;28;20979;-72
2021/03/15 01:00:07;;;;;;;1.20;0.90;;;4.00;98.00;;;;;;5075159;28;20464;-72
2021/03/15 01:02:35;;;;;;;1.20;1.00;;;3.90;98.00;;;;;;5072458;28;20508;-72
2021/03/15 01:05:01;;;;;;;1.20;1.00;;;3.90;98.00;;;;;;5074965;28;20518;-72
2021/03/15 01:07:28;;;;;;;1.20;0.90;;;3.80;98.00;;;;;;5072488;28;20461;-72
2021/03/15 01:09:54;;;;;;;1.20;1.00;;;3.70;98.00;;;;;;5074945;28;20503;-72
2021/03/15 01:12:21;;;;;;;1.20;1.00;;;3.60;98.00;;;;;;5074017;28;20590;-72
2021/03/15 01:14:47;;;;;;;1.40;1.10;;;3.60;98.00;;;;;;5072580;28;20462;-72
2021/03/15 01:17:14;;;;;;;1.20;1.00;;;3.50;98.00;;;;;;5074850;28;20821;-72
2021/03/15 01:19:42;;;;;;;1.40;1.10;;;3.50;98.00;;;;;;5072130;28;20542;-72
2021/03/15 01:22:08;;;;;;;1.20;1.00;;;3.50;98.00;;;;;;5074534;28;20886;-72
2021/03/15 01:24:35;;;;;;;1.60;1.30;;;3.50;98.00;;;;;;5071828;28;20492;-72
2021/03/15 01:27:02;;;;;;;1.50;1.20;;;3.60;98.00;;;;;;5074441;28;20471;-72
2021/03/15 01:29:29;;;;;;;1.17;1.00;;;3.70;98.00;;;;;;5072067;28;20514;-72
2021/03/15 01:31:55;;;;;;;1.17;1.10;;;3.70;98.00;;;;;;5074381;28;20496;-72
2021/03/15 01:34:22;;;;;;;1.20;1.00;;;3.80;98.00;;;;;;5071818;28;20483;-72
2021/03/15 01:36:49;;;;;;;1.13;0.93;;;3.80;98.00;;;;;;5074537;28;20469;-72
2021/03/15 01:39:16;;;;;;;1.17;0.90;;;4.00;98.00;;;;;;5071907;28;20461;-72
2021/03/15 01:41:42;;;;;;;1.20;1.00;;;4.00;98.00;;;;;;5073734;28;20829;-72
2021/03/15 01:44:09;;;;;;;1.20;1.00;;;4.00;98.00;;;;;;5071987;28;20638;-72
2021/03/15 01:46:35;;;;;;;1.30;1.20;;;4.10;98.00;;;;;;5073915;28;20488;-72
2021/03/15 01:49:03;;;;;;;1.20;1.00;;;4.10;98.00;;;;;;5072024;28;20843;-72
2021/03/15 01:51:29;;;;;;;1.20;1.00;;;4.20;98.00;;;;;;5074332;28;20780;-72
2021/03/15 01:53:57;;;;;;;1.20;1.10;;;4.20;98.00;;;;;;5071903;28;20453;-72
2021/03/15 01:56:24;;;;;;;1.30;1.23;;;4.20;98.00;;;;;;5074018;28;20476;-72
2021/03/15 01:58:52;;;;;;;1.20;1.10;;;4.30;98.00;;;;;;5071422;28;20461;-72
2021/03/15 02:01:18;;;;;;;1.30;1.20;;;4.20;98.00;;;;;;5074001;28;20997;-72
2021/03/15 02:03:46;;;;;;;1.20;0.90;;;4.20;98.00;;;;;;5071153;28;20516;-72
2021/03/15 02:06:12;;;;;;;1.30;1.20;;;4.20;98.00;;;;;;5073836;28;20453;-72
2021/03/15 02:08:39;;;;;;;1.20;1.00;;;4.20;98.00;;;;;;5071513;28;20853;-72
2021/03/15 02:11:18;;;;;;;1.20;0.90;;;4.20;98.00;;;;;;5073598;28;20465;-72
2021/03/15 02:14:02;;;;;;;1.23;1.13;;;4.20;98.00;;;;;;5071158;28;20457;-72
2021/03/15 02:16:42;;;;;;;1.20;0.90;;;4.10;98.00;;;;;;5072249;28;20468;-72
2021/03/15 02:19:56;;;;;;;1.20;1.00;;;4.10;98.00;;;;;;5070083;28;20449;-72
2021/03/15 02:22:50;;;;;;;1.20;1.00;;;4.00;98.00;;;;;;5073264;28;21009;-72
2021/03/15 02:25:52;;;;;;;1.17;0.90;;;4.00;98.00;;;;;;5073212;28;20489;-72
2021/03/15 02:28:45;;;;;;;1.20;1.20;;;4.10;98.00;;;;;;5070965;28;20828;-72
2021/03/15 02:31:28;;;;;;;1.20;1.00;;;4.10;98.00;;;;;;5073157;28;20951;-71
2021/03/15 02:34:35;;;;;;;1.50;1.10;;;4.30;98.00;;;;;;5070828;28;20912;-72
2021/03/15 02:37:05;;;;;;;1.20;1.00;;;4.40;98.00;;;;;;5073147;28;20458;-72
2021/03/15 02:39:38;;;;;;;1.20;0.90;;;4.30;98.00;;;;;;5070383;28;20484;-72
2021/03/15 02:42:10;;;;;;;1.17;0.90;;;4.40;98.00;;;;;;5072945;28;20523;-72
2021/03/15 02:44:37;;;;;;;1.20;1.00;;;4.50;98.00;;;;;;5069453;28;20457;-72
2021/03/15 02:47:13;;;;;;;1.10;1.00;;;4.50;98.00;;;;;;5072892;28;20840;-72
2021/03/15 02:49:42;;;;;;;1.20;1.10;;;4.60;98.00;;;;;;5069622;28;20557;-72
2021/03/15 02:52:11;;;;;;;1.10;0.90;;;4.60;98.00;;;;;;5072875;28;20480;-72
2021/03/15 02:54:40;;;;;;;1.20;0.90;;;4.50;98.00;;;;;;5070301;28;20496;-72
2021/03/15 02:57:07;;;;;;;1.20;1.00;;;4.50;98.00;;;;;;5072981;28;20492;-71
2021/03/15 02:59:37;;;;;;;1.40;1.13;;;4.50;98.00;;;;;;5070207;28;20458;-72
2021/03/15 03:02:04;;;;;;;1.20;1.00;;;4.50;98.00;;;;;;5072603;28;20482;-72
2021/03/15 03:04:32;;;;;;;1.20;1.00;;;4.50;98.00;;;;;;5070397;28;20476;-71
2021/03/15 03:07:10;;;;;;;1.17;0.90;;;4.50;98.00;;;;;;5072613;28;20454;-72
2021/03/15 03:09:38;;;;;;;1.20;1.00;;;4.40;98.00;;;;;;5068999;28;20453;-71
2021/03/15 03:12:07;;;;;;;1.20;0.90;;;4.40;98.00;;;;;;5072020;28;20988;-71
2021/03/15 03:14:35;;;;;;;1.20;0.90;;;4.30;98.00;;;;;;5069540;28;20457;-71
2021/03/15 03:17:03;;;;;;;1.20;0.90;;;4.20;98.00;;;;;;5072333;28;20461;-71
2021/03/15 03:19:31;;;;;;;1.20;1.10;;;4.20;98.00;;;;;;5051846;28;20461;-72
2021/03/15 03:21:59;;;;;;;1.20;1.00;;;4.30;98.00;;;;;;5072172;28;20543;-72
2021/03/15 03:24:28;;;;;;;1.30;1.00;;;4.40;98.00;;;;;;5069986;28;20457;-72
2021/03/15 03:26:57;;;;;;;1.57;1.50;;;4.50;98.00;;;;;;5072227;28;20468;-72
2021/03/15 03:29:24;;;;;;;1.20;0.90;;;4.40;98.00;;;;;;5069808;28;20484;-71
2021/03/15 03:31:53;;;;;;;1.20;1.07;;;4.30;98.00;;;;;;5071943;28;20498;-72
2021/03/15 03:34:20;;;;;;;1.20;1.10;;;4.20;98.00;;;;;;5069748;28;20995;-71
2021/03/15 03:36:47;;;;;;;2.90;1.20;;;4.20;98.00;;;;;;5071916;28;20464;-72
2021/03/15 03:39:14;;;;;;;1.20;1.00;;;4.20;98.00;;;;;;5069716;28;20933;-71
2021/03/15 03:41:41;;;;;;;1.20;0.90;;;4.20;98.00;;;;;;5070645;28;20817;-72
2021/03/15 03:44:09;;;;;;;1.20;0.93;;;4.30;98.00;;;;;;5069821;28;20468;-72
2021/03/15 03:46:39;;;;;;;1.70;1.40;;;4.20;98.00;;;;;;5070420;28;20524;-72
2021/03/15 03:49:05;;;;;;;1.80;1.10;;;4.20;98.00;;;;;;5069268;28;20454;-71
2021/03/15 03:51:41;;;;;;;1.20;0.90;;;4.20;98.00;;;;;;5070808;28;20483;-71
2021/03/15 03:54:11;;;;;;;1.37;1.23;;;4.20;98.00;;;;;;5069719;28;20453;-72
2021/03/15 03:56:44;;;;;;;1.70;1.47;;;4.10;98.00;;;;;;5071808;28;20942;-72
2021/03/15 03:59:17;;;;;;;1.20;1.00;;;4.20;98.00;;;;;;5069297;28;20507;-72
2021/03/15 04:01:47;;;;;;;1.20;1.00;;;4.20;98.00;;;;;;5071619;28;20495;-71
2021/03/15 04:04:19;;;;;;;1.20;1.00;;;4.10;98.00;;;;;;5068886;28;20457;-72
2021/03/15 04:06:50;;;;;;;1.20;0.90;;;4.20;98.00;;;;;;5071572;28;20547;-71
2021/03/15 04:09:21;;;;;;;1.73;1.40;;;4.20;98.00;;;;;;5068024;28;20452;-72
2021/03/15 04:11:49;;;;;;;1.20;1.00;;;4.10;98.00;;;;;;5071657;28;20996;-72
2021/03/15 04:14:20;;;;;;;1.20;0.90;;;4.20;98.00;;;;;;5067805;28;20453;-72
2021/03/15 04:16:49;;;;;;;1.20;1.00;;;4.10;98.00;;;;;;5071627;28;20542;-72
2021/03/15 04:19:23;;;;;;;1.63;1.20;;;4.00;98.00;;;;;;5069165;28;20957;-71
2021/03/15 04:21:51;;;;;;;1.20;0.90;;;4.00;98.00;;;;;;5071258;28;21030;-71
2021/03/15 04:24:19;;;;;;;1.20;1.00;;;4.00;98.00;;;;;;5068705;28;20460;-71
2021/03/15 04:26:47;;;;;;;1.20;0.90;;;4.00;98.00;;;;;;5071338;28;20488;-71
2021/03/15 04:29:14;;;;;;;1.20;0.90;;;4.00;98.00;;;;;;5067448;28;20457;-71
2021/03/15 04:31:42;;;;;;;1.20;0.90;;;4.00;98.00;;;;;;5071274;28;20457;-71
2021/03/15 04:34:09;;;;;;;1.20;0.90;;;4.10;98.00;;;;;;5068806;28;20465;-71
2021/03/15 04:36:37;;;;;;;1.20;0.90;;;4.20;98.00;;;;;;5071000;28;20835;-71
2021/03/15 04:39:04;;;;;;;1.20;1.00;;;4.20;98.00;;;;;;5069087;28;20549;-71
2021/03/15 04:41:32;;;;;;;1.20;0.93;;;4.20;98.00;;;;;;5071151;28;20448;-71
2021/03/15 04:43:59;;;;;;;1.20;0.90;;;4.10;98.00;;;;;;5068461;28;20517;-71
2021/03/15 04:46:26;;;;;;;1.20;0.90;;;4.10;98.00;;;;;;5071326;28;20465;-71
2021/03/15 04:48:54;;;;;;;1.20;1.10;;;4.10;98.00;;;;;;5069249;28;20964;-71
2021/03/15 04:51:21;;;;;;;1.20;0.97;;;4.10;98.00;;;;;;5071423;28;20950;-71
2021/03/15 04:53:48;;;;;;;1.20;0.90;;;4.00;98.00;;;;;;5068594;28;20488;-72
2021/03/15 04:56:16;;;;;;;1.20;1.00;;;4.00;98.00;;;;;;5071381;28;20464;-71
2021/03/15 04:58:46;;;;;;;1.20;1.00;;;4.10;98.00;;;;;;5069257;28;20833;-71
2021/03/15 05:01:14;;;;;;;1.20;1.13;;;4.20;98.00;;;;;;5071221;28;20465;-71
2021/03/15 05:03:42;;;;;;;1.33;1.20;;;4.20;98.00;;;;;;5068746;28;20516;-71
2021/03/15 05:06:12;;;;;;;1.20;0.90;;;4.30;98.00;;;;;;5071004;28;21002;-72
2021/03/15 05:08:45;;;;;;;1.20;1.00;;;4.30;98.00;;;;;;5068537;28;20454;-71
2021/03/15 05:11:12;;;;;;;2.50;1.20;;;4.30;98.00;;;;;;5071058;28;20448;-72
2021/03/15 05:13:40;;;;;;;1.20;0.90;;;4.30;98.00;;;;;;5068583;28;20452;-72
2021/03/15 05:16:09;;;;;;;1.10;0.90;;;4.30;98.00;;;;;;5070972;28;20467;-72
2021/03/15 05:18:36;;;;;;;1.20;0.90;;;4.30;98.00;;;;;;5069025;28;20458;-72
2021/03/15 05:21:04;;;;;;;1.10;0.90;;;4.30;98.00;;;;;;5070919;28;20506;-72
2021/03/15 05:23:32;;;;;;;1.20;0.90;;;4.30;98.00;;;;;;5068572;28;20529;-72
2021/03/15 05:26:00;;;;;;;1.20;0.90;;;4.40;98.00;;;;;;5070795;28;20523;-72
2021/03/15 05:28:27;;;;;;;2.90;1.27;;;4.30;98.00;;;;;;5068259;28;20830;-72
2021/03/15 05:31:00;;;;;;;1.20;0.97;;;4.30;98.00;;;;;;5070833;28;20457;-72
2021/03/15 05:33:28;;;;;;;1.20;1.00;;;4.30;98.00;;;;;;5069917;28;20513;-72
2021/03/15 05:35:56;;;;;;;1.17;0.93;;;4.40;98.00;;;;;;5074180;28;20876;-72
2021/03/15 05:38:23;;;;;;;1.10;0.90;;;4.40;98.00;;;;;;5071886;28;20457;-71
2021/03/15 05:40:53;;;;;;;1.20;1.00;;;4.40;98.00;;;;;;5074068;28;21187;-72
2021/03/15 05:43:48;;;;;;;1.10;0.90;;;4.40;98.00;;;;;;5071915;28;20485;-72
2021/03/15 05:46:59;;;;;;;1.10;0.90;;;4.40;98.00;;;;;;5074043;28;20473;-72
2021/03/15 05:50:01;;;;;;;1.20;0.90;;;4.40;98.00;;;;;;5061431;28;20954;-72
2021/03/15 05:52:45;;;;;;;1.20;0.90;;;4.20;98.00;;;;;;5074308;28;20492;-72
2021/03/15 05:55:38;;;;;;;1.17;0.90;;;4.20;98.00;;;;;;5072245;28;20447;-72
2021/03/15 05:58:52;;;;;;;1.20;1.10;;;4.30;98.00;;;;;;5072072;28;20931;-72
2021/03/15 06:01:56;;;;;;;1.20;0.90;;;4.30;98.00;;;;;;5074435;28;20488;-72
2021/03/15 06:04:48;;;;;;;2.73;1.60;;;4.10;98.00;;;;;;5049702;28;20456;-71
2021/03/15 06:07:20;;;;;;;1.20;1.00;;;4.10;98.00;;;;;;5074052;28;20464;-72
2021/03/15 06:10:05;;;;;;;1.20;1.00;;;4.20;98.00;;;;;;5070036;28;20465;-72
2021/03/15 06:12:38;;;;;;;1.20;1.00;;;4.10;98.00;;;;;;5073811;28;20457;-72
2021/03/15 06:15:06;;;;;;;1.20;0.90;;;4.20;98.00;;;;;;5071133;28;20466;-72
2021/03/15 06:17:35;;;;;;;1.10;0.90;;;4.10;98.00;;;;;;5072188;28;20464;-72
2021/03/15 06:20:05;;;;;;;1.20;0.90;;;4.20;98.00;;;;;;5070854;28;20453;-72
2021/03/15 06:22:33;;;;;;;1.20;1.00;;;4.20;98.00;;;;;;5073081;28;20576;-72
2021/03/15 06:25:01;;;;;;;1.20;0.90;;;4.20;98.00;;;;;;5070904;28;20464;-72
2021/03/15 06:27:29;;;;;;;1.20;1.00;;;4.20;98.00;;;;;;5073331;28;20547;-72
2021/03/15 06:29:57;;;;;;;1.60;1.20;;;4.10;98.00;;;;;;5071150;28;20935;-72
2021/03/15 06:32:26;;;;;;;1.20;0.90;;;4.20;98.00;;;;;;5073384;28;20453;-72
2021/03/15 06:34:55;;;;;;;1.10;0.90;;;4.30;98.00;;;;;;5070802;28;20552;-72
2021/03/15 06:37:23;;;;;;;1.40;1.10;;;4.30;98.00;;;;;;5073216;28;20462;-72
2021/03/15 06:39:51;;;;;;;1.20;0.90;;;4.30;98.00;;;;;;5070941;28;20453;-72
2021/03/15 06:42:19;;;;;;;1.17;1.00;;;4.30;98.00;;;;;;5072917;28;20888;-72
2021/03/15 06:44:45;;;;;;;1.20;1.00;;;4.30;98.00;;;;;;5069648;28;20565;-72
2021/03/15 06:47:15;;;;;;;1.20;0.90;;;4.30;98.00;;;;;;5072943;28;20464;-72
2021/03/15 06:49:41;;;;;;;1.20;1.00;;;4.30;98.00;;;;;;5069937;28;21138;-71
2021/03/15 06:52:11;;;;;;;1.30;1.00;;;4.20;98.00;;;;;;5073041;28;20456;-71
2021/03/15 06:54:37;;;;;;;1.20;0.90;;;4.10;98.00;;;;;;5070550;28;20462;-71
2021/03/15 06:57:18;;;;;;;1.20;1.00;;;4.20;98.00;;;;;;5073095;28;20460;-71
2021/03/15 06:59:49;;;;;;;1.20;1.00;;;4.20;98.00;;;;;;5070656;28;20456;-71
2021/03/15 07:02:20;;;;;;;1.20;1.00;;;4.30;98.00;;;;;;5072849;28;20467;-71
2021/03/15 07:04:48;;;;;;;1.10;0.90;;;4.30;98.00;;;;;;5070298;28;20494;-73
2021/03/15 07:07:23;;;;;;;1.20;1.10;;;4.40;98.00;;;;;;5072639;28;20461;-72
2021/03/15 07:09:49;;;;;;;1.20;0.90;;;4.50;98.00;;;;;;5070112;28;20852;-73
2021/03/15 07:12:19;;;;;;;1.20;0.97;;;4.40;98.00;;;;;;5071173;28;20450;-72
2021/03/15 07:14:46;;;;;;;1.20;1.10;;;4.40;98.00;;;;;;5069531;28;20967;-72
2021/03/15 07:17:24;;;;;;;1.10;1.00;;;4.50;98.00;;;;;;5072075;28;20462;-73
2021/03/15 07:19:52;;;;;;;1.20;1.00;;;4.70;98.00;;;;;;5069267;28;20821;-72
2021/03/15 07:22:21;;;;;;;1.10;0.90;;;4.80;98.00;;;;;;5071627;28;20488;-72
2021/03/15 07:25:12;;;;;;;1.40;1.10;;;4.80;98.00;;;;;;5069261;28;20465;-72
2021/03/15 07:27:40;;;;;;;2.70;1.27;;;4.90;98.00;;;;;;5071716;28;20460;-72
2021/03/15 07:30:33;;;;;;;1.10;1.00;;;5.00;98.00;;;;;;5068966;28;20489;-72
2021/03/15 07:33:02;;;;;;;1.63;1.10;;;5.00;98.00;;;;;;5069929;28;20464;-73
2021/03/15 07:35:31;;;;;;;1.20;1.00;;;5.00;98.00;;;;;;5071501;28;20453;-73
2021/03/15 07:37:58;;;;;;;1.10;0.97;;;4.90;98.00;;;;;;5071534;28;20464;-72
2021/03/15 07:40:38;;;;;;;1.10;0.97;;;5.20;98.00;;;;;;5069586;28;20533;-72
2021/03/15 07:43:06;;;;;;;1.20;1.00;;;5.40;98.00;;;;;;5069028;28;20517;-73
2021/03/15 07:45:38;;;;;;;1.20;0.90;;;5.50;98.00;;;;;;5071750;28;20455;-73
2021/03/15 07:48:10;;;;;;;1.10;0.90;;;5.40;98.00;;;;;;5068932;28;20567;-73
2021/03/15 07:50:38;;;;;;;1.20;1.00;;;5.30;98.00;;;;;;5071380;28;20461;-73
2021/03/15 07:53:06;;;;;;;1.20;1.00;;;5.20;98.00;;;;;;5070419;28;20452;-73
2021/03/15 07:55:37;;;;;;;1.13;0.90;;;5.10;98.00;;;;;;5071333;28;20488;-72
2021/03/15 07:58:26;;;;;;;1.17;0.90;;;5.00;98.00;;;;;;5070702;28;20464;-73
2021/03/15 08:00:54;;;;;;;1.13;1.00;;;5.10;98.00;;;;;;5071244;28;20457;-73
2021/03/15 08:03:26;;;;;;;1.20;0.90;;;5.20;98.00;;;;;;5069607;28;20498;-72
2021/03/15 08:05:54;;;;;;;1.20;1.00;;;5.00;98.00;;;;;;5071855;28;20461;-72
2021/03/15 08:08:22;;;;;;;1.20;1.00;;;4.90;98.00;;;;;;5069958;28;20476;-72
2021/03/15 08:10:50;;;;;;;1.10;0.90;;;4.80;98.00;;;;;;5069761;28;20993;-72
2021/03/15 08:13:20;;;;;;;1.10;0.90;;;4.80;98.00;;;;;;5069031;28;20460;-72
2021/03/15 08:15:48;;;;;;;1.10;1.00;;;4.90;98.00;;;;;;5070994;28;21119;-72
2021/03/15 08:18:22;;;;;;;1.10;0.90;;;4.90;98.00;;;;;;5068577;28;20446;-72
2021/03/15 08:20:51;;;;;;;1.30;1.00;;;4.70;98.00;;;;;;5070844;28;20452;-72
2021/03/15 08:23:22;;;;;;;1.17;1.00;;;4.50;98.00;;;;;;5068589;28;20519;-72
2021/03/15 08:25:51;;;;;;;1.20;0.90;;;4.40;98.00;;;;;;5069571;28;20598;-72
2021/03/15 08:28:21;;;;;;;1.10;0.90;;;4.20;98.00;;;;;;5061296;28;20861;-72
2021/03/15 08:30:55;;;;;;;1.57;1.30;;;4.40;98.00;;;;;;5053177;28;20472;-74
2021/03/15 08:33:22;;;;;;;1.10;0.90;;;4.40;98.00;;;;;;5062437;28;20554;-72
2021/03/15 08:35:54;;;;;;;1.20;0.90;;;4.50;98.00;;;;;;5069832;28;20495;-72
2021/03/15 08:38:31;;;;;;;1.20;0.90;;;4.40;98.00;;;;;;5069533;28;20481;-72
2021/03/15 08:41:02;;;;;;;1.13;0.90;;;4.30;98.00;;;;;;5069353;28;20544;-72
2021/03/15 08:43:45;;;;;;;1.10;0.90;;;4.30;98.00;;;;;;5067964;28;20489;-72
2021/03/15 08:46:19;;;;;;;1.10;0.90;;;4.40;98.00;;;;;;5069844;28;20472;-72
2021/03/15 08:49:00;;;;;;;1.83;1.53;;;4.50;98.00;;;;;;5067359;28;20489;-70
2021/03/15 08:51:47;;;;;;;1.10;0.90;;;4.60;98.00;;;;;;5047958;28;20464;-71
2021/03/15 08:54:37;;;;;;;1.47;1.10;;;4.60;98.00;;;;;;5048044;28;20466;-74
2021/03/15 08:57:05;;;;;;;1.10;1.00;;;4.60;98.00;;;;;;5050601;28;20510;-72
2021/03/15 08:59:34;;;;;;;1.10;0.90;;;4.60;98.00;;;;;;5048274;28;20459;-72
2021/03/15 09:02:08;;;;;;;1.10;0.90;;;4.90;98.00;;;;;;5050372;28;20828;-72
2021/03/15 09:04:44;;;;;;;1.10;0.90;;;4.70;98.00;;;;;;5048140;28;20453;-71
2021/03/15 09:07:34;;;;;;;1.10;0.90;;;4.80;98.00;;;;;;5050759;28;20972;-71
2021/03/15 09:10:41;;;;;;;1.20;1.10;;;4.80;98.00;;;;;;5052352;28;20471;-72
2021/03/15 09:13:33;;;;;;;1.77;1.13;;;4.90;98.00;;;;;;5054466;28;20488;-72
2021/03/15 09:16:06;;;;;;;1.10;1.00;;;5.00;98.00;;;;;;5054648;28;20486;-72
2021/03/15 09:18:51;;;;;;;1.10;0.90;;;5.00;98.00;;;;;;5051873;28;20493;-72
2021/03/15 09:21:49;;;;;;;1.10;0.90;;;5.00;98.00;;;;;;5054344;28;20467;-72
2021/03/15 09:24:50;;;;;;;1.10;0.90;;;4.90;98.00;;;;;;5066665;28;20496;-72
2021/03/15 09:27:32;;;;;;;1.10;0.90;;;5.00;98.00;;;;;;5011865;28;20984;-73
2021/03/15 09:30:03;;;;;;;1.10;0.90;;;5.00;98.00;;;;;;5009317;28;20805;-73
2021/03/15 09:32:32;;;;;;;1.10;0.90;;;5.00;98.00;;;;;;5036572;28;20454;-73
2021/03/15 09:35:01;;;;;;;1.10;0.93;;;5.00;98.00;;;;;;5051853;28;20462;-73
2021/03/15 09:37:29;;;;;;;1.33;1.00;;;5.00;98.00;;;;;;5053944;28;20545;-72
2021/03/15 09:40:01;;;;;;;1.10;1.00;;;5.10;98.00;;;;;;5051563;28;20458;-73
2021/03/15 09:42:28;;;;;;;1.10;0.90;;;5.10;98.00;;;;;;5053323;28;20531;-73
2021/03/15 09:44:54;;;;;;;1.10;0.90;;;5.10;98.00;;;;;;5051125;28;20876;-73
2021/03/15 09:47:26;;;;;;;1.10;0.90;;;5.10;98.00;;;;;;5053608;28;20488;-73
2021/03/15 09:49:53;;;;;;;1.10;0.90;;;5.20;98.00;;;;;;5051348;28;20491;-73
2021/03/15 09:52:21;;;;;;;1.10;0.90;;;5.30;98.00;;;;;;5068518;28;20815;-72
2021/03/15 09:54:50;;;;;;;1.10;0.90;;;5.40;98.00;;;;;;5051218;28;20465;-73
2021/03/15 09:57:18;;;;;;;1.10;0.90;;;5.50;98.00;;;;;;5053533;28;20463;-74
2021/03/15 09:59:45;;;;;;;1.10;0.97;;;5.50;98.00;;;;;;5066201;28;20498;-73
2021/03/15 10:02:14;;;;;;;1.20;1.10;;;5.50;98.00;;;;;;5068556;28;20480;-73
2021/03/15 10:04:42;;;;;;;1.10;0.90;;;5.40;98.00;;;;;;5051107;28;20458;-73
2021/03/15 10:07:10;;;;;;;1.10;0.90;;;5.40;98.00;;;;;;5053714;28;20461;-73
2021/03/15 10:09:39;;;;;;;1.30;1.10;;;5.30;98.00;;;;;;5051346;28;20516;-72
2021/03/15 10:12:08;;;;;;;1.10;0.90;;;5.30;98.00;;;;;;5053773;28;20941;-72
2021/03/15 10:14:36;;;;;;;1.10;1.00;;;5.30;98.00;;;;;;5051359;28;20455;-72
2021/03/15 10:17:04;;;;;;;1.10;0.90;;;5.30;98.00;;;;;;5053462;28;20456;-72
2021/03/15 10:19:32;;;;;;;1.10;0.90;;;5.40;98.00;;;;;;5050803;28;20517;-71
2021/03/15 10:22:10;;;;;;;1.10;0.90;;;5.40;98.00;;;;;;5053767;28;20967;-71
2021/03/15 10:24:39;;;;;;;1.10;0.90;;;5.50;98.00;;;;;;5066210;28;20485;-72
2021/03/15 10:27:08;;;;;;;1.10;0.90;;;5.50;98.00;;;;;;5053640;28;20455;-71
2021/03/15 10:29:36;;;;;;;1.10;0.87;;;5.50;98.00;;;;;;5050900;28;20537;-72
2021/03/15 10:32:05;;;;;;;1.10;0.90;;;5.60;98.00;;;;;;5053421;28;21010;-72
2021/03/15 10:34:32;;;;;;;1.10;0.90;;;5.50;98.00;;;;;;5051071;28;20454;-73
2021/03/15 10:36:59;;;;;;;1.10;1.00;;;5.70;98.00;;;;;;5053393;28;20493;-72
2021/03/15 10:39:27;;;;;;;1.10;0.97;;;5.70;98.00;;;;;;5050721;28;20498;-72
2021/03/15 10:41:54;;;;;;;1.10;1.00;;;5.70;98.00;;;;;;5053333;28;21003;-72
2021/03/15 10:44:22;;;;;;;1.10;0.97;;;5.80;98.00;;;;;;5050752;28;20496;-72
2021/03/15 10:46:51;;;;;;;1.10;0.97;;;5.80;98.00;;;;;;5053077;28;20503;-72
2021/03/15 10:49:19;;;;;;;1.10;1.00;;;5.80;98.00;;;;;;5050726;28;20797;-72
2021/03/15 10:51:46;;;;;;;1.10;1.10;;;5.70;98.00;;;;;;5053269;28;20452;-72
2021/03/15 10:54:31;;;;;;;1.47;1.20;;;5.80;98.00;;;;;;5051119;28;20468;-72
2021/03/15 10:57:17;;;;;;;1.10;0.90;;;5.70;98.00;;;;;;5053184;28;20502;-72
2021/03/15 10:59:45;;;;;;;1.10;0.90;;;5.70;98.00;;;;;;5050449;28;20468;-72
2021/03/15 11:02:19;;;;;;;1.10;0.90;;;5.70;98.00;;;;;;5053169;28;20476;-72
2021/03/15 11:04:56;;;;;;;1.10;1.00;;;5.60;98.00;;;;;;5050454;28;20465;-72
2021/03/15 11:07:26;;;;;;;1.10;1.00;;;5.60;98.00;;;;;;5053132;28;20465;-72
2021/03/15 11:10:01;;;;;;;1.10;1.00;;;5.70;98.00;;;;;;5050585;28;20947;-72
2021/03/15 11:12:36;;;;;;;1.10;0.90;;;5.80;98.00;;;;;;5052843;28;20534;-72
2021/03/15 11:15:13;;;;;;;1.10;0.93;;;5.70;98.00;;;;;;5050375;28;20841;-72
2021/03/15 11:17:41;;;;;;;1.10;0.90;;;5.80;98.00;;;;;;5052904;28;20859;-72
2021/03/15 11:20:11;;;;;;;1.10;0.90;;;5.90;98.00;;;;;;5050247;28;20458;-72
2021/03/15 11:22:49;;;;;;;1.10;0.90;;;5.90;98.00;;;;;;5052667;28;20488;-72
2021/03/15 11:25:18;;;;;;;1.10;0.90;;;5.80;98.00;;;;;;5050167;28;20447;-72
2021/03/15 11:27:49;;;;;;;1.10;0.90;;;5.80;98.00;;;;;;5052427;28;20482;-72
2021/03/15 11:30:21;;;;;;;1.10;1.10;;;5.90;98.00;;;;;;5049928;28;20448;-72
2021/03/15 11:33:05;;;;;;;1.10;0.90;;;5.80;98.00;;;;;;5051973;28;20840;-72
2021/03/15 11:35:34;;;;;;;1.10;1.00;;;5.80;98.00;;;;;;5049786;28;20464;-72
2021/03/15 11:38:01;;;;;;;1.10;0.90;;;5.90;98.00;;;;;;5067349;28;20491;-72
2021/03/15 11:40:41;;;;;;;1.10;1.00;;;6.00;98.00;;;;;;5049772;28;20461;-73
2021/03/15 11:43:10;;;;;;;1.10;0.90;;;6.00;98.00;;;;;;5052006;28;20491;-73
2021/03/15 11:45:36;;;;;;;1.10;0.90;;;6.10;98.00;;;;;;5064978;28;20459;-72
2021/03/15 11:48:04;;;;;;;1.23;1.13;;;6.10;98.00;;;;;;5051871;28;20499;-72
2021/03/15 11:50:32;;;;;;;1.10;0.97;;;6.10;98.00;;;;;;5065046;28;20494;-72
2021/03/15 11:52:59;;;;;;;1.10;0.90;;;6.20;98.00;;;;;;5051897;28;20978;-72
2021/03/15 11:55:26;;;;;;;1.20;1.07;;;6.20;98.00;;;;;;5049519;28;20524;-72
2021/03/15 11:57:54;;;;;;;1.43;1.20;;;6.20;98.00;;;;;;5051707;28;20459;-72
2021/03/15 12:00:22;;;;;;;1.10;1.00;;;6.30;98.00;;;;;;5049714;28;20463;-72
2021/03/15 12:02:52;;;;;;;2.13;1.40;;;6.30;98.00;;;;;;5052085;28;20978;-72
2021/03/15 12:05:21;;;;;;;1.10;0.90;;;6.10;98.00;;;;;;5064311;28;20838;-72
2021/03/15 12:07:47;;;;;;;1.10;1.00;;;6.00;98.00;;;;;;5067076;28;20494;-72
2021/03/15 12:10:15;;;;;;;1.10;0.90;;;6.10;98.00;;;;;;5049474;28;20884;-72
2021/03/15 12:12:42;;;;;;;1.40;1.40;;;6.00;98.00;;;;;;5051691;28;20451;-72
2021/03/15 12:15:12;;;;;;;1.50;1.27;;;6.10;98.00;;;;;;5049039;28;20518;-72
2021/03/15 12:17:39;;;;;;;1.10;0.90;;;6.10;98.00;;;;;;5051457;28;20505;-72
2021/03/15 12:20:08;;;;;;;1.10;1.00;;;6.20;98.00;;;;;;5049210;28;20494;-72
2021/03/15 12:22:35;;;;;;;1.10;0.97;;;6.30;98.00;;;;;;5051358;28;20462;-72
2021/03/15 12:25:02;;;;;;;1.10;0.90;;;6.50;98.00;;;;;;5049084;28;20966;-72
2021/03/15 12:27:36;;;;;;;1.10;1.00;;;6.60;98.00;;;;;;5051266;28;20464;-72
2021/03/15 12:30:03;;;;;;;1.10;0.90;;;6.80;98.00;;;;;;5048705;28;21106;-72
2021/03/15 12:32:31;;;;;;;1.10;0.93;;;7.00;98.00;;;;;;5051260;28;20488;-72
2021/03/15 12:34:57;;;;;;;1.33;1.10;;;7.10;98.00;;;;;;5048769;28;20491;-72
2021/03/15 12:37:26;;;;;;;1.10;1.00;;;7.20;98.00;;;;;;5051211;28;20454;-72
2021/03/15 12:39:53;;;;;;;1.97;1.10;;;7.30;98.00;;;;;;5048210;28;20492;-72
2021/03/15 12:42:20;;;;;;;1.10;1.00;;;7.70;98.00;;;;;;5051205;28;20497;-72
2021/03/15 12:44:47;;;;;;;1.30;1.00;;;8.00;98.00;;;;;;5067625;28;20482;-73
2021/03/15 12:47:15;;;;;;;1.40;1.10;;;8.30;98.00;;;;;;5055130;28;20465;-73
2021/03/15 12:49:42;;;;;;;1.20;1.00;;;8.30;98.00;;;;;;5052699;28;20504;-73
2021/03/15 12:52:09;;;;;;;1.20;1.10;;;8.30;98.00;;;;;;5055219;28;20495;-73
2021/03/15 12:54:36;;;;;;;1.20;0.90;;;8.20;98.00;;;;;;5053018;28;20642;-73
2021/03/15 12:57:03;;;;;;;1.30;1.00;;;8.00;98.00;;;;;;5055238;28;20469;-72
2021/03/15 12:59:30;;;;;;;1.20;1.10;;;7.90;98.00;;;;;;5052712;28;20485;-72
2021/03/15 13:01:57;;;;;;;1.60;1.10;;;7.70;98.00;;;;;;5055072;28;20979;-72
2021/03/15 13:04:23;;;;;;;2.13;1.23;;;7.60;98.00;;;;;;5052506;28;20487;-73
2021/03/15 13:06:53;;;;;;;1.20;1.00;;;7.40;98.00;;;;;;5054994;28;20460;-73
2021/03/15 13:09:19;;;;;;;1.20;1.00;;;7.30;98.00;;;;;;5052419;28;20453;-73
2021/03/15 13:11:54;;;;;;;1.20;1.00;;;7.40;98.00;;;;;;5054983;28;20841;-72
2021/03/15 13:14:21;;;;;;;1.20;1.00;;;7.40;98.00;;;;;;5052381;28;20468;-72
2021/03/15 13:16:47;;;;;;;1.20;1.00;;;7.60;98.00;;;;;;5054653;28;20456;-73
2021/03/15 13:19:13;;;;;;;1.20;1.03;;;7.80;98.00;;;;;;5052096;28;20460;-73